Time,TemperatureF,DewpointF,PressureIn,WindDirection,WindDirectionDegrees,WindSpeedMPH,WindSpeedGustMPH,Humidity,HourlyPrecipIn,Conditions,Clouds,dailyrainin,SoftwareType,DateUTC
2013-10-25 07:12:00,28.1,26.0,30.43,SW,235,0.0,1.0,93,0.00,,,0.00,weatherlink.com 1.10,2013-10-25 12:12:00,
2013-10-25 07:17:00,28.1,26.0,30.43,WSW,239,4.0,4.0,93,0.00,,,0.00,weatherlink.com 1.10,2013-10-25 12:17:00,
2013-10-25 07:32:00,27.7,26.0,30.43,WSW,240,1.0,4.0,93,0.00,,,0.00,weatherlink.com 1.10,2013-10-25 12:32:00,
2013-10-25 07:47:00,27.5,26.0,30.43,WSW,238,3.0,5.0,93,0.00,,,0.00,weatherlink.com 1.10,2013-10-25 12:47:00,
2013-10-25 08:02:00,28.5,27.0,30.43,SW,217,2.0,3.0,93,0.00,,,0.00,weatherlink.com 1.10,2013-10-25 13:02:00,
2013-10-25 08:17:00,29.7,27.0,30.44,WSW,252,3.0,3.0,91,0.00,,,0.00,weatherlink.com 1.10,2013-10-25 13:17:00,
2013-10-25 08:32:00,30.0,28.0,30.44,SW,224,4.0,4.0,91,0.00,,,0.00,weatherlink.com 1.10,2013-10-25 13:32:00,
2013-10-25 08:47:00,31.2,29.0,30.44,SW,224,3.0,5.0,91,0.00,,,0.00,weatherlink.com 1.10,2013-10-25 13:47:00,
2013-10-25 09:02:00,32.5,30.0,30.45,SW,236,4.0,5.0,89,0.00,,,0.00,weatherlink.com 1.10,2013-10-25 14:02:00,
2013-10-25 09:17:00,33.6,30.0,30.45,West,263,4.0,7.0,87,0.00,,,0.00,weatherlink.com 1.10,2013-10-25 14:17:00,
2013-10-25 09:32:00,34.9,31.0,30.45,WSW,245,2.0,6.0,86,0.00,,,0.00,weatherlink.com 1.10,2013-10-25 14:32:00,
2013-10-25 09:47:00,36.6,32.0,30.45,SSW,212,4.0,6.0,83,0.00,,,0.00,weatherlink.com 1.10,2013-10-25 14:47:00,
2013-10-25 10:03:00,38.2,32.0,30.44,SW,219,5.0,7.0,79,0.00,,,0.00,weatherlink.com 1.10,2013-10-25 15:03:00,
2013-10-25 10:18:00,39.7,33.0,30.44,SW,236,6.0,7.0,76,0.00,,,0.00,weatherlink.com 1.10,2013-10-25 15:18:00,
2013-10-25 10:33:00,41.1,33.0,30.44,WSW,253,7.0,8.0,73,0.00,,,0.00,weatherlink.com 1.10,2013-10-25 15:33:00,
2013-10-25 10:48:00,42.5,33.0,30.43,South,191,3.0,8.0,69,0.00,,,0.00,weatherlink.com 1.10,2013-10-25 15:48:00,
2013-10-25 11:03:00,44.2,33.0,30.43,SW,229,3.0,10.0,65,0.00,,,0.00,weatherlink.com 1.10,2013-10-25 16:03:00,
2013-10-25 11:18:00,46.0,32.0,30.43,West,260,6.0,10.0,59,0.00,,,0.00,weatherlink.com 1.10,2013-10-25 16:18:00,
2013-10-25 11:33:00,47.3,33.0,30.42,West,262,8.0,10.0,57,0.00,,,0.00,weatherlink.com 1.10,2013-10-25 16:33:00,
2013-10-25 11:48:00,48.4,32.0,30.42,West,263,9.0,14.0,53,0.00,,,0.00,weatherlink.com 1.10,2013-10-25 16:48:00,
2013-10-25 12:03:00,49.4,32.0,30.41,WSW,250,7.0,9.0,51,0.00,,,0.00,weatherlink.com 1.10,2013-10-25 17:03:00,
2013-10-25 12:18:00,50.3,32.0,30.40,WSW,246,6.0,12.0,49,0.00,,,0.00,weatherlink.com 1.10,2013-10-25 17:18:00,
2013-10-25 12:33:00,50.8,31.0,30.39,WNW,284,9.0,15.0,47,0.00,,,0.00,weatherlink.com 1.10,2013-10-25 17:33:00,
2013-10-25 12:48:00,50.9,30.0,30.38,SW,235,8.0,13.0,45,0.00,,,0.00,weatherlink.com 1.10,2013-10-25 17:48:00,
2013-10-25 13:03:00,51.4,30.0,30.37,WSW,246,8.0,16.0,44,0.00,,,0.00,weatherlink.com 1.10,2013-10-25 18:03:00,
2013-10-25 13:18:00,52.2,30.0,30.36,West,273,12.0,13.0,43,0.00,,,0.00,weatherlink.com 1.10,2013-10-25 18:18:00,
2013-10-25 13:33:00,52.2,29.0,30.34,WSW,250,6.0,12.0,41,0.00,,,0.00,weatherlink.com 1.10,2013-10-25 18:33:00,
2013-10-25 13:48:00,52.0,29.0,30.34,WSW,239,10.0,19.0,41,0.00,,,0.00,weatherlink.com 1.10,2013-10-25 18:48:00,
2013-10-25 14:03:00,52.3,28.0,30.33,WSW,246,10.0,18.0,39,0.00,,,0.00,weatherlink.com 1.10,2013-10-25 19:03:00,
2013-10-25 14:18:00,52.5,28.0,30.32,WSW,249,11.0,19.0,39,0.00,,,0.00,weatherlink.com 1.10,2013-10-25 19:18:00,
2013-10-25 14:33:00,53.1,29.0,30.31,SW,233,9.0,17.0,39,0.00,,,0.00,weatherlink.com 1.10,2013-10-25 19:33:00,
2013-10-25 14:49:00,53.4,27.0,30.30,WSW,253,10.0,19.0,36,0.00,,,0.00,weatherlink.com 1.10,2013-10-25 19:49:00,
2013-10-25 15:05:00,53.6,26.0,30.29,WSW,245,15.0,23.0,34,0.00,,,0.00,weatherlink.com 1.10,2013-10-25 20:05:00,
2013-10-25 15:19:00,53.8,25.0,30.28,WSW,252,12.0,23.0,33,0.00,,,0.00,weatherlink.com 1.10,2013-10-25 20:19:00,
2013-10-25 15:35:00,54.0,24.0,30.27,West,263,12.0,21.0,31,0.00,,,0.00,weatherlink.com 1.10,2013-10-25 20:35:00,
2013-10-25 15:49:00,54.1,24.0,30.27,WSW,255,13.0,22.0,31,0.00,,,0.00,weatherlink.com 1.10,2013-10-25 20:49:00,
2013-10-25 16:04:00,54.4,24.0,30.26,WSW,252,16.0,19.0,31,0.00,,,0.00,weatherlink.com 1.10,2013-10-25 21:04:00,
2013-10-25 16:19:00,54.6,24.0,30.25,West,259,13.0,19.0,31,0.00,,,0.00,weatherlink.com 1.10,2013-10-25 21:19:00,
2013-10-25 16:35:00,54.3,24.0,30.24,SW,235,16.0,20.0,31,0.00,,,0.00,weatherlink.com 1.10,2013-10-25 21:35:00,
2013-10-25 16:49:00,54.5,24.0,30.23,SSW,203,9.0,16.0,31,0.00,,,0.00,weatherlink.com 1.10,2013-10-25 21:49:00,
2013-10-25 17:04:00,53.8,24.0,30.22,SW,214,10.0,20.0,32,0.00,,,0.00,weatherlink.com 1.10,2013-10-25 22:04:00,
2013-10-25 17:19:00,53.5,24.0,30.21,WSW,238,6.0,16.0,32,0.00,,,0.00,weatherlink.com 1.10,2013-10-25 22:19:00,
2013-10-25 17:34:00,53.0,24.0,30.21,WSW,237,8.0,14.0,33,0.00,,,0.00,weatherlink.com 1.10,2013-10-25 22:34:00,
2013-10-25 17:49:00,52.1,25.0,30.20,SW,218,2.0,11.0,35,0.00,,,0.00,weatherlink.com 1.10,2013-10-25 22:49:00,
2013-10-25 18:04:00,50.7,25.0,30.20,WSW,238,7.0,13.0,37,0.00,,,0.00,weatherlink.com 1.10,2013-10-25 23:04:00,
2013-10-25 18:19:00,49.4,25.0,30.20,WSW,246,5.0,7.0,38,0.00,,,0.00,weatherlink.com 1.10,2013-10-25 23:19:00,
2013-10-25 18:34:00,48.1,25.0,30.20,SW,236,0.0,5.0,40,0.00,,,0.00,weatherlink.com 1.10,2013-10-25 23:34:00,
2013-10-25 18:49:00,46.8,25.0,30.20,South,189,1.0,5.0,43,0.00,,,0.00,weatherlink.com 1.10,2013-10-25 23:49:00,
2013-10-25 19:04:00,46.2,26.0,30.19,West,271,2.0,6.0,45,0.00,,,0.00,weatherlink.com 1.10,2013-10-26 00:04:00,
2013-10-25 19:19:00,45.4,27.0,30.19,SW,229,3.0,6.0,48,0.00,,,0.00,weatherlink.com 1.10,2013-10-26 00:19:00,
2013-10-25 19:34:00,44.9,27.0,30.18,SSW,200,2.0,7.0,49,0.00,,,0.00,weatherlink.com 1.10,2013-10-26 00:34:00,
2013-10-25 19:49:00,44.5,27.0,30.18,SW,232,3.0,7.0,51,0.00,,,0.00,weatherlink.com 1.10,2013-10-26 00:49:00,
2013-10-25 20:04:00,44.0,27.0,30.17,SW,221,4.0,7.0,52,0.00,,,0.00,weatherlink.com 1.10,2013-10-26 01:04:00,
2013-10-25 20:19:00,43.9,27.0,30.17,SSW,205,2.0,10.0,52,0.00,,,0.00,weatherlink.com 1.10,2013-10-26 01:19:00,
2013-10-25 20:34:00,43.9,27.0,30.16,SSW,204,2.0,8.0,52,0.00,,,0.00,weatherlink.com 1.10,2013-10-26 01:34:00,
2013-10-25 20:49:00,43.8,27.0,30.16,SSW,203,5.0,8.0,53,0.00,,,0.00,weatherlink.com 1.10,2013-10-26 01:49:00,
2013-10-25 21:04:00,44.3,27.0,30.15,SSW,208,7.0,9.0,52,0.00,,,0.00,weatherlink.com 1.10,2013-10-26 02:04:00,
2013-10-25 21:19:00,44.3,27.0,30.15,WSW,242,7.0,11.0,52,0.00,,,0.00,weatherlink.com 1.10,2013-10-26 02:19:00,
2013-10-25 21:34:00,44.6,28.0,30.14,SW,233,7.0,12.0,52,0.00,,,0.00,weatherlink.com 1.10,2013-10-26 02:34:00,
2013-10-25 21:49:00,44.6,28.0,30.14,WSW,244,4.0,11.0,52,0.00,,,0.00,weatherlink.com 1.10,2013-10-26 02:49:00,
2013-10-25 22:04:00,44.1,28.0,30.14,West,260,11.0,11.0,53,0.00,,,0.00,weatherlink.com 1.10,2013-10-26 03:04:00,
2013-10-25 22:19:00,43.5,28.0,30.14,SSW,205,5.0,11.0,54,0.00,,,0.00,weatherlink.com 1.10,2013-10-26 03:19:00,
2013-10-25 22:35:00,43.2,28.0,30.14,SW,224,4.0,10.0,55,0.00,,,0.00,weatherlink.com 1.10,2013-10-26 03:35:00,
2013-10-25 22:50:00,43.0,28.0,30.14,SW,224,4.0,10.0,56,0.00,,,0.00,weatherlink.com 1.10,2013-10-26 03:50:00,
2013-10-25 23:05:00,42.6,28.0,30.14,West,273,1.0,8.0,56,0.00,,,0.00,weatherlink.com 1.10,2013-10-26 04:05:00,
2013-10-25 23:20:00,42.4,28.0,30.12,WSW,238,8.0,8.0,57,0.00,,,0.00,weatherlink.com 1.10,2013-10-26 04:20:00,
2013-10-25 23:35:00,42.2,28.0,30.11,SW,233,5.0,10.0,58,0.00,,,0.00,weatherlink.com 1.10,2013-10-26 04:35:00,
2013-10-25 23:50:00,41.9,28.0,30.11,SW,221,2.0,11.0,58,0.00,,,0.00,weatherlink.com 1.10,2013-10-26 04:50:00,